createdAt,value
2018-01-05T00:00:51.536Z,94849.98
2018-01-05T00:03:20.333Z,94857.17
2018-01-05T00:05:47.927Z,94850.86
2018-01-05T00:08:15.602Z,94846.94
2018-01-05T00:10:43.515Z,94846.62
2018-01-05T00:13:12.115Z,94849.84
2018-01-05T00:15:39.773Z,94843.54
2018-01-05T00:18:07.392Z,94836.80
2018-01-05T00:20:35.051Z,94838.39
2018-01-05T00:23:02.689Z,94834.76
2018-01-05T00:25:30.858Z,94840.86
2018-01-05T00:27:58.735Z,94834.98
2018-01-05T00:30:26.532Z,94822.83
2018-01-05T00:32:54.156Z,94819.55
2018-01-05T00:35:21.933Z,94827.01
2018-01-05T00:37:49.604Z,94828.08
2018-01-05T00:40:17.219Z,94832.65
2018-01-05T00:42:45.211Z,94832.95
2018-01-05T00:45:12.892Z,94825.86
2018-01-05T00:47:41.030Z,94827.61
2018-01-05T00:50:09.739Z,94827.34
2018-01-05T00:52:37.464Z,94825.61
2018-01-05T00:55:05.382Z,94830.92
2018-01-05T00:57:33.543Z,94846.68
2018-01-05T01:00:01.654Z,94847.28
2018-01-05T01:02:29.562Z,94842.97
2018-01-05T01:04:58.055Z,94839.19
2018-01-05T01:07:25.685Z,94855.09
2018-01-05T01:09:53.351Z,94848.25
2018-01-05T01:12:21.491Z,94842.22
2018-01-05T01:14:49.191Z,94850.77
2018-01-05T01:17:16.839Z,94852.34
2018-01-05T01:19:44.838Z,94854.02
2018-01-05T01:22:13.331Z,94850.34
2018-01-05T01:24:41.591Z,94851.36
2018-01-05T01:27:09.168Z,94853.70
2018-01-05T01:29:36.775Z,94856.19
2018-01-05T01:32:04.404Z,94863.37
2018-01-05T01:34:32.135Z,94857.98
2018-01-05T01:36:59.733Z,94861.01
2018-01-05T01:39:27.315Z,94861.83
2018-01-05T01:41:55.146Z,94871.90
2018-01-05T01:44:22.857Z,94877.34
2018-01-05T01:46:50.462Z,94872.77
2018-01-05T01:49:18.032Z,94887.86
2018-01-05T01:51:45.694Z,94887.53
2018-01-05T01:54:13.325Z,94892.87
2018-01-05T01:56:41.166Z,94882.16
2018-01-05T01:59:08.956Z,94881.36
2018-01-05T02:01:36.579Z,94885.83
2018-01-05T02:04:05.087Z,94874.96
2018-01-05T02:06:32.883Z,94878.08
2018-01-05T02:09:00.768Z,94886.89
2018-01-05T02:11:28.426Z,94895.34
2018-01-05T02:13:56.015Z,94891.92
2018-01-05T02:16:23.703Z,94887.39
2018-01-05T02:18:51.294Z,94896.53
2018-01-05T02:21:18.861Z,94889.42
2018-01-05T02:23:46.517Z,94887.91
2018-01-05T02:26:14.806Z,94893.33
2018-01-05T02:28:42.436Z,94883.50
2018-01-05T02:31:10.053Z,94884.81
2018-01-05T02:33:37.868Z,94876.51
2018-01-05T02:36:05.442Z,94820.67
2018-01-05T02:38:33.029Z,94879.87
2018-01-05T02:41:02.290Z,94879.95
2018-01-05T02:43:29.945Z,94871.31
2018-01-05T02:45:58.026Z,94877.89
2018-01-05T02:48:26.517Z,94863.37
2018-01-05T02:50:55.075Z,94864.12
2018-01-05T02:53:22.743Z,94866.45
2018-01-05T02:55:50.355Z,94873.80
2018-01-05T02:58:18.114Z,94861.61
2018-01-05T03:00:45.895Z,94863.27
2018-01-05T03:03:13.794Z,94870.61
2018-01-05T03:05:41.671Z,94878.21
2018-01-05T03:08:09.329Z,94881.38
2018-01-05T03:10:37.276Z,94888.99
2018-01-05T03:13:04.871Z,94896.42
2018-01-05T03:15:32.943Z,94897.05
2018-01-05T03:18:01.128Z,94897.02
2018-01-05T03:20:29.287Z,94895.56
2018-01-05T03:22:57.008Z,94885.03
2018-01-05T03:25:24.846Z,94899.74
2018-01-05T03:27:52.458Z,94901.30
2018-01-05T03:30:20.053Z,94907.89
2018-01-05T03:32:48.600Z,94906.17
2018-01-05T03:35:16.415Z,94895.72
2018-01-05T03:37:44.027Z,94895.20
2018-01-05T03:40:11.791Z,94892.94
2018-01-05T03:42:39.547Z,94897.72
2018-01-05T03:45:07.364Z,94886.41
2018-01-05T03:47:35.839Z,94891.91
2018-01-05T03:50:03.498Z,94888.70
2018-01-05T03:52:31.165Z,94889.65
2018-01-05T03:54:58.807Z,94892.17
2018-01-05T03:57:26.598Z,94891.16
2018-01-05T03:59:54.290Z,94886.06
2018-01-05T04:02:21.926Z,94884.17
2018-01-05T04:04:49.608Z,94874.52
2018-01-05T04:07:17.582Z,94867.71
2018-01-05T04:09:45.223Z,94856.31
2018-01-05T04:12:12.784Z,94851.66
2018-01-05T04:14:40.376Z,94852.95
2018-01-05T04:17:07.993Z,94861.26
2018-01-05T04:19:35.801Z,94868.95
2018-01-05T04:22:03.647Z,94867.08
2018-01-05T04:24:32.984Z,94879.72
2018-01-05T04:27:01.320Z,94887.29
2018-01-05T04:29:29.468Z,94884.68
2018-01-05T04:31:57.138Z,94893.16
2018-01-05T04:34:24.763Z,94906.44
2018-01-05T04:36:52.673Z,94915.59
2018-01-05T04:39:20.533Z,94919.20
2018-01-05T04:41:48.317Z,94922.03
2018-01-05T04:44:15.930Z,94911.81
2018-01-05T04:46:43.596Z,94907.20
2018-01-05T04:49:11.824Z,94916.53
2018-01-05T04:51:39.461Z,94926.61
2018-01-05T04:54:07.106Z,94928.72
2018-01-05T04:56:34.709Z,94928.30
2018-01-05T04:59:02.944Z,94919.88
2018-01-05T05:01:30.602Z,94917.42
2018-01-05T05:03:59.219Z,94919.88
2018-01-05T05:06:26.853Z,94912.20
2018-01-05T05:08:54.568Z,94928.23
2018-01-05T05:11:22.245Z,94936.80
2018-01-05T05:13:50.803Z,94942.70
2018-01-05T05:16:18.488Z,94935.55
2018-01-05T05:18:46.152Z,94955.82
2018-01-05T05:21:13.841Z,94943.39
2018-01-05T05:23:41.846Z,94946.72
2018-01-05T05:26:09.640Z,94935.47
2018-01-05T05:28:37.281Z,94934.62
2018-01-05T05:31:04.938Z,94941.41
2018-01-05T05:33:32.590Z,94952.17
2018-01-05T05:36:00.361Z,94957.25
2018-01-05T05:38:27.998Z,94965.11
2018-01-05T05:40:55.768Z,94969.11
2018-01-05T05:43:24.333Z,94969.55
2018-01-05T05:45:52.682Z,94992.72
2018-01-05T05:48:20.261Z,94982.43
2018-01-05T05:50:47.945Z,94989.17
2018-01-05T05:53:15.574Z,94992.70
2018-01-05T05:55:43.264Z,94986.81
2018-01-05T05:58:10.872Z,94991.52
2018-01-05T06:00:38.510Z,94981.77
2018-01-05T06:03:06.150Z,94998.54
2018-01-05T06:05:33.759Z,94969.80
2018-01-05T06:08:01.385Z,94984.92
2018-01-05T06:10:29.202Z,94987.61
2018-01-05T06:12:56.840Z,94972.47
2018-01-05T06:15:24.430Z,94973.02
2018-01-05T06:17:52.176Z,94960.38
2018-01-05T06:20:19.774Z,94967.20
2018-01-05T06:22:47.438Z,94977.55
2018-01-05T06:25:15.552Z,94977.47
2018-01-05T06:27:43.232Z,94978.69
2018-01-05T06:30:10.988Z,94985.84
2018-01-05T06:32:38.802Z,94975.83
2018-01-05T06:35:06.392Z,94992.95
2018-01-05T06:37:35.213Z,94997.28
2018-01-05T06:40:02.887Z,95006.47
2018-01-05T06:42:30.535Z,95005.16
2018-01-05T06:44:58.209Z,95023.63
2018-01-05T06:47:25.824Z,95026.33
2018-01-05T06:49:53.457Z,95025.32
2018-01-05T06:52:21.079Z,95029.70
2018-01-05T06:54:49.558Z,95040.38
2018-01-05T06:57:17.214Z,95048.85
2018-01-05T06:59:44.849Z,95049.66
2018-01-05T07:02:12.625Z,95054.63
2018-01-05T07:04:40.199Z,95050.81
2018-01-05T07:07:07.859Z,95054.64
2018-01-05T07:09:35.471Z,95053.89
2018-01-05T07:12:03.185Z,95053.67
2018-01-05T07:14:30.994Z,95041.17
2018-01-05T07:16:59.489Z,95056.09
2018-01-05T07:19:27.824Z,95065.39
2018-01-05T07:21:55.478Z,95067.88
2018-01-05T07:24:23.103Z,95057.99
2018-01-05T07:26:50.888Z,95037.52
2018-01-05T07:29:18.545Z,95046.27
2018-01-05T07:31:47.461Z,95052.11
2018-01-05T07:34:15.114Z,95036.20
2018-01-05T07:36:42.736Z,95037.81
2018-01-05T07:39:10.414Z,95051.66
2018-01-05T07:41:38.013Z,95046.52
2018-01-05T07:44:05.710Z,95051.01
2018-01-05T07:46:34.286Z,95054.93
2018-01-05T07:49:01.873Z,95057.19
2018-01-05T07:51:29.458Z,95057.26
2018-01-05T07:53:57.351Z,95065.28
2018-01-05T07:56:24.950Z,95075.05
2018-01-05T07:58:52.569Z,95063.89
2018-01-05T08:01:20.187Z,95058.56
2018-01-05T08:03:47.806Z,95055.37
2018-01-05T08:06:15.420Z,95060.75
2018-01-05T08:08:43.048Z,95066.42
2018-01-05T08:11:10.685Z,95065.92
2018-01-05T08:13:38.301Z,95067.03
2018-01-05T08:16:05.962Z,95076.11
2018-01-05T08:18:33.767Z,95072.66
2018-01-05T08:21:01.408Z,95076.57
2018-01-05T08:23:29.136Z,95086.84
2018-01-05T08:25:57.326Z,95087.88
2018-01-05T08:28:25.891Z,95090.56
2018-01-05T08:30:53.748Z,95093.52
2018-01-05T08:33:21.412Z,95098.66
2018-01-05T08:35:49.117Z,95102.04
2018-01-05T08:38:16.737Z,95105.95
2018-01-05T08:40:44.296Z,95103.97
2018-01-05T08:43:11.906Z,95113.13
2018-01-05T08:45:40.387Z,95111.89
2018-01-05T08:48:08.181Z,95102.30
2018-01-05T08:50:35.769Z,95106.98
2018-01-05T08:53:04.119Z,95097.46
2018-01-05T08:55:32.709Z,95093.16
2018-01-05T08:58:00.312Z,95086.44
2018-01-05T09:00:29.758Z,95091.02
2018-01-05T09:02:57.657Z,95085.27
2018-01-05T09:05:25.445Z,95081.59
2018-01-05T09:07:53.238Z,95085.58
2018-01-05T09:10:20.906Z,95080.58
2018-01-05T09:12:48.486Z,95085.70
2018-01-05T09:15:16.099Z,95084.70
2018-01-05T09:17:44.633Z,95087.28
2018-01-05T09:20:13.069Z,95091.31
2018-01-05T09:22:41.596Z,95095.73
2018-01-05T09:25:09.264Z,95092.73
2018-01-05T09:27:37.060Z,95097.45
2018-01-05T09:30:08.553Z,95099.29
2018-01-05T09:32:36.212Z,95098.04
2018-01-05T09:35:03.904Z,95091.91
2018-01-05T09:37:31.588Z,95087.16
2018-01-05T09:39:59.256Z,95074.93
2018-01-05T09:42:27.023Z,95082.58
2018-01-05T09:44:55.164Z,95078.55
2018-01-05T09:47:23.671Z,95087.03
2018-01-05T09:49:52.009Z,95085.09
2018-01-05T09:52:19.859Z,95078.58
2018-01-05T09:54:47.477Z,95092.52
2018-01-05T09:57:15.098Z,95091.20
2018-01-05T09:59:43.707Z,95085.13
2018-01-05T10:04:58.319Z,95096.40
2018-01-05T10:07:26.649Z,95087.29
2018-01-05T10:09:54.288Z,95083.52
2018-01-05T10:12:22.211Z,95025.72
2018-01-05T10:14:50.051Z,95094.08
2018-01-05T10:17:17.683Z,95089.86
2018-01-05T10:19:45.278Z,95083.38
2018-01-05T10:22:13.082Z,95086.94
2018-01-05T10:24:40.705Z,95099.94
2018-01-05T10:27:08.358Z,95085.99
2018-01-05T10:29:36.049Z,95096.19
2018-01-05T10:32:03.689Z,95093.16
2018-01-05T10:34:31.247Z,95105.70
2018-01-05T10:36:58.934Z,95109.12
2018-01-05T10:39:26.629Z,95110.25
2018-01-05T10:41:54.509Z,95110.20
2018-01-05T10:44:22.113Z,95096.90
2018-01-05T10:46:49.783Z,95093.13
2018-01-05T10:49:18.366Z,95097.20
2018-01-05T10:51:45.993Z,95097.23
2018-01-05T10:54:13.700Z,95086.10
2018-01-05T10:56:41.340Z,95098.75
2018-01-05T10:59:08.997Z,95095.73
2018-01-05T11:01:36.648Z,95101.16
2018-01-05T11:04:04.297Z,95096.44
2018-01-05T11:06:31.915Z,95089.30
2018-01-05T11:08:59.646Z,95095.48
2018-01-05T11:11:27.331Z,95089.09
2018-01-05T11:13:55.933Z,95098.45
2018-01-05T11:16:23.603Z,95105.56
2018-01-05T11:18:51.209Z,95087.13
2018-01-05T11:21:18.873Z,95094.06
2018-01-05T11:23:46.530Z,95096.50
2018-01-05T11:26:14.184Z,95096.67
2018-01-05T11:28:41.788Z,95095.12
2018-01-05T11:31:09.443Z,95082.77
2018-01-05T11:33:37.081Z,95081.65
2018-01-05T11:36:04.665Z,95076.83
2018-01-05T11:38:32.291Z,95083.45
2018-01-05T11:40:59.908Z,95095.47
2018-01-05T11:43:27.714Z,95096.48
2018-01-05T11:45:56.306Z,95097.15
2018-01-05T11:48:23.882Z,95088.89
2018-01-05T11:50:51.489Z,95092.42
2018-01-05T11:53:19.191Z,95094.26
2018-01-05T11:55:47.042Z,95100.72
2018-01-05T11:58:14.629Z,95097.91
2018-01-05T12:00:42.286Z,95097.32
2018-01-05T12:03:09.993Z,95071.22
2018-01-05T12:05:37.593Z,95066.39
2018-01-05T12:08:05.299Z,95067.45
2018-01-05T12:10:33.514Z,95075.14
2018-01-05T12:13:01.132Z,95069.11
2018-01-05T12:15:28.718Z,95061.94
2018-01-05T12:17:57.073Z,95063.30
2018-01-05T12:20:24.894Z,95068.17
2018-01-05T12:22:52.566Z,95069.49
2018-01-05T12:25:20.392Z,95071.66
2018-01-05T12:27:48.063Z,95074.43
2018-01-05T12:30:15.738Z,95070.47
2018-01-05T12:32:43.358Z,95072.11
2018-01-05T12:35:10.953Z,95066.16
2018-01-05T12:37:38.786Z,95081.71
2018-01-05T12:40:06.388Z,95083.98
2018-01-05T12:42:34.023Z,95084.81
2018-01-05T12:45:01.674Z,95089.02
2018-01-05T12:47:30.212Z,95101.81
2018-01-05T12:49:58.777Z,95091.20
2018-01-05T12:52:26.533Z,95100.00
2018-01-05T12:54:54.145Z,95107.83
2018-01-05T12:57:21.757Z,95115.66
2018-01-05T12:59:49.463Z,95131.80
2018-01-05T13:02:17.089Z,95142.84
2018-01-05T13:04:44.728Z,95134.61
2018-01-05T13:07:12.511Z,95127.30
2018-01-05T13:09:40.136Z,95128.39
2018-01-05T13:12:08.328Z,95130.09
2018-01-05T13:14:36.853Z,95117.74
2018-01-05T13:17:04.552Z,95133.48
2018-01-05T13:19:32.211Z,95133.80
2018-01-05T13:21:59.864Z,95131.80
2018-01-05T13:24:27.672Z,95138.48
2018-01-05T13:26:55.349Z,95134.48
2018-01-05T13:29:22.952Z,95142.42
2018-01-05T13:31:50.666Z,95138.86
2018-01-05T13:34:18.288Z,95140.23
2018-01-05T13:36:45.885Z,95141.06
2018-01-05T13:39:13.549Z,95131.38
2018-01-05T13:41:41.224Z,95130.33
2018-01-05T13:44:08.873Z,95122.47
2018-01-05T13:46:36.722Z,95141.64
2018-01-05T13:49:04.406Z,95143.47
2018-01-05T13:51:32.132Z,95146.03
2018-01-05T13:53:59.843Z,95148.20
2018-01-05T13:56:27.494Z,95141.98
2018-01-05T13:58:55.135Z,95150.13
2018-01-05T14:01:22.868Z,95151.67
2018-01-05T14:03:50.504Z,95158.75
2018-01-05T14:06:18.114Z,95166.80
2018-01-05T14:08:45.818Z,95159.05
2018-01-05T14:11:13.488Z,95163.94
2018-01-05T14:13:41.387Z,95161.16
2018-01-05T14:16:09.010Z,95174.38
2018-01-05T14:18:36.583Z,95184.34
2018-01-05T14:21:04.486Z,95180.53
2018-01-05T14:23:32.150Z,95168.50
2018-01-05T14:25:59.754Z,95181.73
2018-01-05T14:28:27.333Z,95178.20
2018-01-05T14:30:58.782Z,95179.36
2018-01-05T14:33:26.691Z,95180.39
2018-01-05T14:35:54.395Z,95181.75
2018-01-05T14:38:22.108Z,95181.74
2018-01-05T14:40:50.238Z,95192.25
2018-01-05T14:43:17.882Z,95190.89
2018-01-05T14:45:45.930Z,95190.34
2018-01-05T14:48:13.722Z,95194.47
2018-01-05T14:50:41.534Z,95202.11
2018-01-05T14:53:09.316Z,95205.04
2018-01-05T14:55:37.279Z,95197.14
2018-01-05T14:58:05.021Z,95210.95
2018-01-05T15:00:32.689Z,95215.15
2018-01-05T15:03:00.354Z,95212.23
2018-01-05T15:05:27.967Z,95211.35
2018-01-05T15:07:57.486Z,95220.39
2018-01-05T15:10:25.888Z,95214.48
2018-01-05T15:12:53.637Z,95227.63
2018-01-05T15:15:22.892Z,95223.20
2018-01-05T15:17:50.612Z,95226.36
2018-01-05T15:20:18.376Z,95229.84
2018-01-05T15:22:46.131Z,95236.25
2018-01-05T15:25:13.972Z,95233.33
2018-01-05T15:27:41.743Z,95239.23
2018-01-05T15:30:16.025Z,95243.05
2018-01-05T15:32:44.022Z,95242.12
2018-01-05T15:35:11.949Z,95240.45
2018-01-05T15:37:40.567Z,95243.45
2018-01-05T15:40:08.217Z,95243.77
2018-01-05T15:42:35.847Z,95240.58
2018-01-05T15:45:03.539Z,95236.80
2018-01-05T15:47:31.155Z,95226.16
2018-01-05T15:49:59.082Z,95228.09
2018-01-05T15:52:27.262Z,95228.91
2018-01-05T15:54:56.103Z,95236.63
2018-01-05T15:57:23.752Z,95243.37
2018-01-05T15:59:51.509Z,95238.92
2018-01-05T16:02:19.229Z,95239.45
2018-01-05T16:04:46.845Z,95242.97
2018-01-05T16:07:14.826Z,95249.69
2018-01-05T16:09:42.478Z,95252.87
2018-01-05T16:12:10.111Z,95245.44
2018-01-05T16:14:37.737Z,95250.03
2018-01-05T16:17:05.345Z,95244.27
2018-01-05T16:19:34.446Z,95244.17
2018-01-05T16:22:02.675Z,95244.84
2018-01-05T16:24:30.406Z,95243.44
2018-01-05T16:26:59.275Z,95247.02
2018-01-05T16:29:27.041Z,95241.16
2018-01-05T16:31:54.755Z,95224.61
2018-01-05T16:34:22.358Z,95243.19
2018-01-05T16:36:49.922Z,95228.09
2018-01-05T16:39:18.409Z,95241.63
2018-01-05T16:41:46.017Z,95235.41
2018-01-05T16:44:13.576Z,95237.62
2018-01-05T16:46:41.174Z,95253.03
2018-01-05T16:49:08.746Z,95257.36
2018-01-05T16:51:36.360Z,95263.94
2018-01-05T16:54:03.942Z,95252.59
2018-01-05T16:56:32.702Z,95272.03
2018-01-05T16:59:00.981Z,95269.42
2018-01-05T17:01:28.590Z,95269.06
2018-01-05T17:03:56.326Z,95272.46
2018-01-05T17:06:24.658Z,95274.95
2018-01-05T17:08:52.330Z,95279.03
2018-01-05T17:11:20.244Z,95281.74
2018-01-05T17:13:47.880Z,95282.66
2018-01-05T17:16:16.373Z,95285.88
2018-01-05T17:18:43.946Z,95283.69
2018-01-05T17:21:11.583Z,95283.44
2018-01-05T17:23:39.374Z,95285.00
2018-01-05T17:26:07.028Z,95276.20
2018-01-05T17:28:35.180Z,95281.43
2018-01-05T17:31:02.853Z,95290.39
2018-01-05T17:33:30.430Z,95296.30
2018-01-05T17:35:58.060Z,95296.43
2018-01-05T17:38:26.600Z,95305.83
2018-01-05T17:40:54.670Z,95297.86
2018-01-05T17:43:22.285Z,95307.61
2018-01-05T17:45:50.477Z,95315.14
2018-01-05T17:48:18.157Z,95326.97
2018-01-05T17:53:31.963Z,95329.17
2018-01-05T17:56:00.750Z,95333.28
2018-01-05T18:01:03.668Z,95345.34
2018-01-05T18:03:34.098Z,95345.84
2018-01-05T18:06:02.012Z,95337.28
2018-01-05T18:08:32.969Z,95337.70
2018-01-05T18:11:00.600Z,95332.45
2018-01-05T18:13:28.264Z,95345.23
2018-01-05T18:15:56.119Z,95344.81
2018-01-05T18:18:24.791Z,95350.20
2018-01-05T18:20:57.273Z,95353.24
2018-01-05T18:23:25.406Z,95355.95
2018-01-05T18:25:53.736Z,95348.72
2018-01-05T18:28:24.367Z,95358.73
2018-01-05T18:30:55.557Z,95357.24
2018-01-05T18:33:23.416Z,95358.87
2018-01-05T18:35:51.154Z,95361.08
2018-01-05T18:38:19.614Z,95366.15
2018-01-05T18:40:53.546Z,95377.14
2018-01-05T18:43:25.676Z,95378.73
2018-01-05T18:45:56.110Z,95381.97
2018-01-05T18:48:23.755Z,95377.05
2018-01-05T18:50:53.172Z,95375.56
2018-01-05T18:53:21.182Z,95374.11
2018-01-05T18:55:48.796Z,95384.53
2018-01-05T18:58:16.457Z,95391.95
2018-01-05T19:00:44.369Z,95393.47
2018-01-05T19:03:12.253Z,95391.44
2018-01-05T19:05:40.652Z,95390.77
2018-01-05T19:08:12.552Z,95400.39
2018-01-05T19:10:51.026Z,95395.36
2018-01-05T19:13:19.142Z,95390.02
2018-01-05T19:15:48.182Z,95379.27
2018-01-05T19:18:18.853Z,95378.78
2018-01-05T19:20:51.951Z,95372.23
2018-01-05T19:23:26.510Z,95378.33
2018-01-05T19:25:54.277Z,95381.05
2018-01-05T19:28:22.084Z,95374.22
2018-01-05T19:30:51.881Z,95386.15
2018-01-05T19:33:20.962Z,95395.34
2018-01-05T19:35:50.865Z,95401.17
2018-01-05T19:38:21.467Z,95414.61
2018-01-05T19:40:51.294Z,95422.28
2018-01-05T19:43:20.383Z,95421.13
2018-01-05T19:45:48.100Z,95425.14
2018-01-05T19:48:16.801Z,95428.57
2018-01-05T19:50:44.879Z,95426.47
2018-01-05T19:53:14.587Z,95427.58
2018-01-05T19:55:42.166Z,95434.72
2018-01-05T19:58:09.931Z,95434.09
2018-01-05T20:00:37.901Z,95408.00
2018-01-05T20:03:05.600Z,95419.14
2018-01-05T20:05:33.248Z,95406.14
2018-01-05T20:08:02.182Z,95417.34
2018-01-05T20:10:30.024Z,95422.45
2018-01-05T20:12:58.392Z,95426.69
2018-01-05T20:15:26.132Z,95429.59
2018-01-05T20:17:54.612Z,95429.80
2018-01-05T20:20:25.116Z,95436.16
2018-01-05T20:22:52.811Z,95438.11
2018-01-05T20:25:21.265Z,95441.25
2018-01-05T20:27:48.953Z,95441.30
2018-01-05T20:30:16.624Z,95440.26
2018-01-05T20:32:44.565Z,95433.52
2018-01-05T20:35:12.169Z,95436.02
2018-01-05T20:37:39.936Z,95431.25
2018-01-05T20:40:07.574Z,95447.62
2018-01-05T20:42:36.073Z,95452.00
2018-01-05T20:45:03.833Z,95451.28
2018-01-05T20:47:31.509Z,95456.05
2018-01-05T20:49:59.823Z,95458.41
2018-01-05T20:52:28.255Z,95471.50
2018-01-05T20:54:55.849Z,95473.73
2018-01-05T20:57:23.654Z,95468.61
2018-01-05T20:59:51.400Z,95468.88
2018-01-05T21:02:19.055Z,95471.41
2018-01-05T21:04:47.555Z,95466.59
2018-01-05T21:07:15.250Z,95472.44
2018-01-05T21:09:43.395Z,95475.86
2018-01-05T21:12:11.070Z,95477.70
2018-01-05T21:14:38.705Z,95471.55
2018-01-05T21:17:06.484Z,95467.98
2018-01-05T21:19:34.520Z,95474.44
2018-01-05T21:22:02.143Z,95469.83
2018-01-05T21:24:30.024Z,95473.55
2018-01-05T21:26:58.367Z,95482.71
2018-01-05T21:29:26.386Z,95494.23
2018-01-05T21:31:53.996Z,95469.14
2018-01-05T21:34:21.649Z,95495.67
2018-01-05T21:36:49.487Z,95494.27
2018-01-05T21:39:17.296Z,95503.08
2018-01-05T21:41:44.918Z,95490.75
2018-01-05T21:44:13.592Z,95496.13
2018-01-05T21:46:41.206Z,95496.13
2018-01-05T21:49:08.983Z,95491.66
2018-01-05T21:51:36.655Z,95491.45
2018-01-05T21:54:04.307Z,95492.70
2018-01-05T21:56:32.106Z,95493.98
2018-01-05T21:58:59.709Z,95496.87
2018-01-05T22:01:27.354Z,95494.69
2018-01-05T22:03:55.178Z,95495.94
2018-01-05T22:06:24.029Z,95499.00
2018-01-05T22:08:53.230Z,95498.03
2018-01-05T22:11:21.666Z,95495.77
2018-01-05T22:13:49.377Z,95504.86
2018-01-05T22:16:19.171Z,95497.23
2018-01-05T22:18:46.862Z,95500.70
2018-01-05T22:21:14.606Z,95498.30
2018-01-05T22:23:42.541Z,95500.16
2018-01-05T22:26:10.403Z,95497.57
2018-01-05T22:28:38.412Z,95494.59
2018-01-05T22:31:06.991Z,95494.40
2018-01-05T22:33:35.508Z,95486.95
2018-01-05T22:36:03.166Z,95479.44
2018-01-05T22:38:30.876Z,95485.17
2018-01-05T22:40:58.514Z,95488.29
2018-01-05T22:43:26.289Z,95486.39
2018-01-05T22:45:54.713Z,95479.98
2018-01-05T22:48:22.504Z,95477.12
2018-01-05T22:50:50.063Z,95473.01
2018-01-05T22:53:17.681Z,95478.67
2018-01-05T22:55:46.131Z,95473.55
2018-01-05T22:58:13.861Z,95472.47
2018-01-05T23:00:42.254Z,95469.56
2018-01-05T23:03:09.872Z,95470.97
2018-01-05T23:05:37.529Z,95479.52
2018-01-05T23:10:41.057Z,95480.30
2018-01-05T23:13:08.833Z,95479.93
2018-01-05T23:15:36.607Z,95483.82
2018-01-05T23:18:04.184Z,95487.03
2018-01-05T23:20:31.942Z,95496.63
2018-01-05T23:22:59.630Z,95493.05
2018-01-05T23:25:28.542Z,95495.58
2018-01-05T23:27:56.710Z,95493.30
2018-01-05T23:30:24.538Z,95491.85
2018-01-05T23:32:52.332Z,95489.92
2018-01-05T23:35:19.940Z,95479.48
2018-01-05T23:37:47.932Z,95486.20
2018-01-05T23:40:17.221Z,95483.05
2018-01-05T23:42:46.460Z,95495.70
2018-01-05T23:45:15.077Z,95495.98
2018-01-05T23:47:42.859Z,95498.41
2018-01-05T23:50:10.529Z,95506.00
2018-01-05T23:52:38.317Z,95508.94
2018-01-05T23:55:05.906Z,95506.25
2018-01-05T23:57:34.063Z,95505.19
